LKPV weather

CLOSED Kámen Air Base
Czechia

Public forecast

Using degrees Celsius for public forecast. Weather courtesy of forecast.io.

METAR (pilot weather report)

Closest report is Čáslav Air Base, 34.8 nm (64.4 km) NNE. Retrieved 2019/09/23 05:00 UTC (52 minutes ago):

LKCV 230500Z VRB01KT CAVOK 06/05 Q1013 NOSIG RMK BLU BLU

TAF (pilot weather forecast)

Closest forecast is Čáslav Air Base, 34.8 nm (64.4 km) NNE. Retrieved 2019/09/23 00:05 UTC (6 hours ago):

TAF LKCV 222300Z 2300/2400 12006KT CAVOK BECMG 2313/2315 02006KT SCT030